Time;durP1;ratioP1;P1;durP2;ratioP2;P2;SDS_P1;SDS_P2;PMS_P1;PMS_P2;Temp;Humidity;BMP_temperature;BMP_pressure;BME280_temperature;BME280_humidity;BME280_pressure;Samples;Min_cycle;Max_cycle;Signal;HPM_P1;HPM_P2
2022/07/15 00:01:28;;;;;;;3.45;1.00;;;;;;;;;;5078499;27;89877;-62
2022/07/15 00:03:55;;;;;;;2.28;0.70;;;;;;;;;;5077666;27;88113;-62
2022/07/15 00:06:21;;;;;;;2.08;1.15;;;;;;;;;;5092957;27;88750;-62
2022/07/15 00:08:47;;;;;;;2.97;1.15;;;;;;;;;;5083969;27;89434;-62
2022/07/15 00:11:14;;;;;;;2.08;0.80;;;;;;;;;;5081526;27;89076;-62
2022/07/15 00:13:40;;;;;;;2.60;0.95;;;;;;;;;;5082023;27;88230;-62
2022/07/15 00:16:06;;;;;;;2.03;1.00;;;;;;;;;;5081756;27;87961;-62
2022/07/15 00:18:33;;;;;;;1.92;0.98;;;;;;;;;;5063326;27;88914;-62
2022/07/15 00:20:59;;;;;;;2.95;0.95;;;;;;;;;;5080614;27;88732;-62
2022/07/15 00:23:26;;;;;;;2.83;1.00;;;;;;;;;;5081581;27;87984;-61
2022/07/15 00:25:52;;;;;;;4.10;0.80;;;;;;;;;;5081415;27;88708;-62
2022/07/15 00:28:18;;;;;;;1.80;1.10;;;;;;;;;;5080875;27;88109;-62
2022/07/15 00:30:45;;;;;;;1.35;0.70;;;;;;;;;;5084481;27;88196;-62
2022/07/15 00:33:11;;;;;;;1.88;1.02;;;;;;;;;;5063381;27;88779;-62
2022/07/15 00:35:38;;;;;;;2.63;0.82;;;;;;;;;;5081203;27;88005;-62
2022/07/15 00:38:09;;;;;;;2.75;1.10;;;;;;;;;;5082368;27;90273;-61
2022/07/15 00:40:40;;;;;;;3.95;1.10;;;;;;;;;;5080999;27;89050;-62
2022/07/15 00:43:07;;;;;;;2.17;0.85;;;;;;;;;;5081258;27;88299;-62
2022/07/15 00:45:33;;;;;;;2.65;1.20;;;;;;;;;;5080891;27;88921;-62
2022/07/15 00:47:59;;;;;;;6.00;1.10;;;;;;;;;;5081423;27;89849;-61
2022/07/15 00:50:28;;;;;;;1.85;0.80;;;;;;;;;;5081598;27;88771;-62
2022/07/15 00:53:03;;;;;;;1.85;1.00;;;;;;;;;;5083971;27;89013;-62
2022/07/15 00:55:30;;;;;;;2.88;1.20;;;;;;;;;;5081435;27;88901;-62
2022/07/15 00:58:00;;;;;;;1.65;0.80;;;;;;;;;;5081081;27;89136;-62
2022/07/15 01:00:26;;;;;;;3.67;1.00;;;;;;;;;;5077727;27;93588;-62
2022/07/15 01:02:53;;;;;;;1.30;0.82;;;;;;;;;;5077992;27;91725;-62
2022/07/15 01:05:20;;;;;;;2.72;1.00;;;;;;;;;;5077850;27;93291;-62
2022/07/15 01:07:49;;;;;;;1.40;0.77;;;;;;;;;;5059148;27;93650;-62
2022/07/15 01:10:16;;;;;;;2.38;1.00;;;;;;;;;;5076623;27;94800;-61
2022/07/15 01:12:45;;;;;;;4.03;0.90;;;;;;;;;;5077644;27;95567;-61
2022/07/15 01:15:11;;;;;;;1.95;1.00;;;;;;;;;;5063396;27;94465;-62
2022/07/15 01:17:38;;;;;;;2.13;0.80;;;;;;;;;;5077601;27;93301;-61
2022/07/15 01:20:06;;;;;;;3.20;0.93;;;;;;;;;;5076505;27;92406;-62
2022/07/15 01:22:32;;;;;;;2.00;0.98;;;;;;;;;;5077285;27;92330;-62
2022/07/15 01:24:58;;;;;;;1.33;0.80;;;;;;;;;;5077584;27;92439;-62
2022/07/15 01:27:25;;;;;;;2.60;1.00;;;;;;;;;;5078130;27;92855;-62
2022/07/15 01:29:51;;;;;;;3.30;1.02;;;;;;;;;;5077881;27;92399;-63
2022/07/15 01:32:18;;;;;;;2.47;1.00;;;;;;;;;;5059552;27;94093;-62
2022/07/15 01:34:48;;;;;;;1.67;0.88;;;;;;;;;;5075199;27;96174;-62
2022/07/15 01:37:15;;;;;;;1.85;1.00;;;;;;;;;;5080298;27;92620;-63
2022/07/15 01:39:41;;;;;;;2.13;0.77;;;;;;;;;;5077109;27;93385;-62
2022/07/15 01:42:08;;;;;;;2.55;0.80;;;;;;;;;;5077101;27;92390;-62
2022/07/15 01:44:34;;;;;;;1.95;0.88;;;;;;;;;;5076988;27;93314;-62
2022/07/15 01:47:01;;;;;;;2.17;0.90;;;;;;;;;;5077301;27;92365;-62
2022/07/15 01:49:31;;;;;;;1.83;0.80;;;;;;;;;;5076975;27;92442;-62
2022/07/15 01:51:59;;;;;;;1.67;0.90;;;;;;;;;;5077374;27;93103;-62
2022/07/15 01:54:28;;;;;;;2.05;1.02;;;;;;;;;;5076829;27;93488;-62
2022/07/15 01:56:55;;;;;;;2.23;0.80;;;;;;;;;;5076908;27;92440;-62
2022/07/15 01:59:25;;;;;;;1.38;0.80;;;;;;;;;;5078549;27;94700;-62
2022/07/15 02:01:52;;;;;;;1.80;0.80;;;;;;;;;;5077319;27;92513;-63
2022/07/15 02:04:19;;;;;;;1.85;0.85;;;;;;;;;;5076593;27;93542;-62
2022/07/15 02:06:45;;;;;;;1.90;0.95;;;;;;;;;;5076431;27;92819;-63
2022/07/15 02:09:12;;;;;;;1.60;0.70;;;;;;;;;;5076765;27;92462;-62
2022/07/15 02:11:38;;;;;;;1.90;0.85;;;;;;;;;;5076882;27;92354;-62
2022/07/15 02:14:05;;;;;;;1.98;0.73;;;;;;;;;;5076718;27;93491;-62
2022/07/15 02:16:32;;;;;;;2.00;0.82;;;;;;;;;;5077727;27;91669;-63
2022/07/15 02:19:00;;;;;;;4.00;0.93;;;;;;;;;;5079696;27;92543;-62
2022/07/15 02:21:26;;;;;;;1.80;1.00;;;;;;;;;;5076566;27;92325;-62
2022/07/15 02:23:53;;;;;;;2.35;0.95;;;;;;;;;;5075259;27;94767;-62
2022/07/15 02:26:20;;;;;;;4.25;1.40;;;;;;;;;;5076308;27;93463;-62
2022/07/15 02:28:46;;;;;;;3.75;0.80;;;;;;;;;;5076536;27;92528;-62
2022/07/15 02:31:13;;;;;;;1.63;0.75;;;;;;;;;;5076541;27;94146;-62
2022/07/15 02:33:40;;;;;;;2.13;0.82;;;;;;;;;;5075933;27;93451;-62
2022/07/15 02:36:07;;;;;;;2.13;0.80;;;;;;;;;;5076300;27;92453;-63
2022/07/15 02:38:33;;;;;;;1.63;1.10;;;;;;;;;;5076859;27;94169;-62
2022/07/15 02:41:00;;;;;;;1.25;0.60;;;;;;;;;;5079851;27;92815;-63
2022/07/15 02:43:26;;;;;;;2.80;0.90;;;;;;;;;;5076430;27;92739;-62
2022/07/15 02:45:52;;;;;;;2.65;0.70;;;;;;;;;;5076557;27;93556;-62
2022/07/15 02:48:19;;;;;;;1.10;1.00;;;;;;;;;;5074511;27;94748;-62
2022/07/15 02:50:46;;;;;;;1.67;0.60;;;;;;;;;;5076296;27;95566;-63
2022/07/15 02:53:12;;;;;;;1.27;0.80;;;;;;;;;;5075943;27;93850;-62
2022/07/15 02:55:38;;;;;;;1.70;0.70;;;;;;;;;;5075996;27;92365;-62
2022/07/15 02:58:05;;;;;;;1.17;0.82;;;;;;;;;;5075790;27;93440;-62
2022/07/15 03:00:32;;;;;;;1.88;0.88;;;;;;;;;;5075570;27;93444;-63
2022/07/15 03:02:59;;;;;;;1.30;0.80;;;;;;;;;;5079128;27;92416;-62
2022/07/15 03:05:26;;;;;;;2.65;0.90;;;;;;;;;;5076419;27;92616;-63
2022/07/15 03:07:52;;;;;;;1.73;0.80;;;;;;;;;;5076117;27;92401;-63
2022/07/15 03:10:18;;;;;;;1.85;0.70;;;;;;;;;;5075815;27;93109;-63
2022/07/15 03:12:44;;;;;;;1.52;0.82;;;;;;;;;;5073745;27;95945;-63
2022/07/15 03:15:11;;;;;;;2.55;0.88;;;;;;;;;;5076098;27;92816;-62
2022/07/15 03:17:39;;;;;;;1.65;0.70;;;;;;;;;;5075625;27;93204;-62
2022/07/15 03:20:07;;;;;;;1.13;0.73;;;;;;;;;;5075720;27;93503;-62
2022/07/15 03:22:33;;;;;;;2.45;0.70;;;;;;;;;;5075455;27;92446;-62
2022/07/15 03:24:59;;;;;;;2.05;0.90;;;;;;;;;;5078643;27;93187;-62
2022/07/15 03:27:26;;;;;;;1.73;0.60;;;;;;;;;;5075214;27;92359;-62
2022/07/15 03:29:52;;;;;;;2.47;0.90;;;;;;;;;;5076190;27;93438;-62
2022/07/15 03:32:20;;;;;;;1.75;0.80;;;;;;;;;;5075153;27;93769;-63
2022/07/15 03:34:48;;;;;;;0.93;0.73;;;;;;;;;;5075213;27;92425;-63
2022/07/15 03:37:15;;;;;;;1.08;0.50;;;;;;;;;;5056116;27;94883;-62
2022/07/15 03:39:41;;;;;;;2.00;0.80;;;;;;;;;;5075430;27;93108;-62
2022/07/15 03:42:07;;;;;;;3.15;0.90;;;;;;;;;;5074475;27;92435;-63
2022/07/15 03:44:34;;;;;;;2.80;0.90;;;;;;;;;;5075849;27;94344;-63
2022/07/15 03:47:00;;;;;;;1.63;0.70;;;;;;;;;;5078540;27;92389;-62
2022/07/15 03:49:27;;;;;;;2.08;0.68;;;;;;;;;;5075861;27;94159;-62
2022/07/15 03:51:53;;;;;;;1.92;0.93;;;;;;;;;;5075450;27;94426;-62
2022/07/15 03:54:20;;;;;;;0.95;0.75;;;;;;;;;;5076037;27;91810;-62
2022/07/15 03:56:49;;;;;;;1.80;0.82;;;;;;;;;;5075250;27;92600;-62
2022/07/15 03:59:16;;;;;;;1.53;0.87;;;;;;;;;;5075310;27;94727;-62
2022/07/15 04:01:42;;;;;;;1.40;0.75;;;;;;;;;;5073193;27;94814;-62
2022/07/15 04:04:09;;;;;;;0.73;0.60;;;;;;;;;;5074801;27;95598;-62
2022/07/15 04:06:35;;;;;;;3.25;0.60;;;;;;;;;;5074575;27;93534;-62
2022/07/15 04:09:02;;;;;;;1.45;0.60;;;;;;;;;;5078336;27;92319;-63
2022/07/15 04:11:28;;;;;;;2.78;1.00;;;;;;;;;;5074753;27;93549;-63
2022/07/15 04:13:54;;;;;;;1.00;0.60;;;;;;;;;;5074756;27;92362;-62
2022/07/15 04:16:21;;;;;;;1.38;0.75;;;;;;;;;;5075753;27;94257;-62
2022/07/15 04:18:47;;;;;;;1.67;0.80;;;;;;;;;;5075618;27;93606;-62
2022/07/15 04:21:14;;;;;;;1.58;0.77;;;;;;;;;;5075198;27;92445;-62
2022/07/15 04:23:41;;;;;;;2.03;1.00;;;;;;;;;;5074528;27;93093;-62
2022/07/15 04:26:07;;;;;;;1.48;0.80;;;;;;;;;;5072797;27;95896;-62
2022/07/15 04:28:33;;;;;;;1.23;0.73;;;;;;;;;;5077606;27;92443;-62
2022/07/15 04:31:00;;;;;;;0.95;0.73;;;;;;;;;;5074470;27;93471;-62
2022/07/15 04:33:26;;;;;;;1.50;0.98;;;;;;;;;;5074714;27;92449;-62
2022/07/15 04:35:54;;;;;;;2.40;0.60;;;;;;;;;;5074643;27;93234;-62
2022/07/15 04:38:20;;;;;;;2.05;0.90;;;;;;;;;;5074236;27;93440;-62
2022/07/15 04:40:47;;;;;;;2.90;1.05;;;;;;;;;;5074337;27;92445;-62
2022/07/15 04:43:13;;;;;;;0.82;0.68;;;;;;;;;;5074925;27;92311;-62
2022/07/15 04:45:40;;;;;;;0.95;0.60;;;;;;;;;;5074502;27;93493;-62
2022/07/15 04:50:45;;;;;;;0.52;0.50;;;;;;;;;;5074646;27;92493;-62
2022/07/15 04:50:53;;;;;;;3.00;1.02;;;;;;;;;;5075957;27;94924;-62
2022/07/15 04:53:20;;;;;;;0.75;0.60;;;;;;;;;;5056904;27;92424;-62
2022/07/15 04:55:47;;;;;;;1.73;0.75;;;;;;;;;;5077104;27;93200;-62
2022/07/15 04:58:14;;;;;;;2.78;1.00;;;;;;;;;;5077437;27;93589;-62
2022/07/15 05:00:44;;;;;;;1.65;0.90;;;;;;;;;;5077925;27;92506;-62
2022/07/15 05:03:10;;;;;;;3.13;0.60;;;;;;;;;;5077656;27;93138;-62
2022/07/15 05:05:37;;;;;;;2.40;1.02;;;;;;;;;;5077824;27;93650;-62
2022/07/15 05:08:03;;;;;;;2.88;1.08;;;;;;;;;;5077951;27;91637;-62
2022/07/15 05:10:33;;;;;;;1.58;0.75;;;;;;;;;;5078343;27;93574;-62
2022/07/15 05:13:01;;;;;;;2.25;0.80;;;;;;;;;;5081165;27;94888;-62
2022/07/15 05:15:27;;;;;;;0.95;0.70;;;;;;;;;;5076704;27;95210;-62
2022/07/15 05:17:53;;;;;;;1.80;0.70;;;;;;;;;;5077808;27;92535;-63
2022/07/15 05:20:21;;;;;;;1.10;0.70;;;;;;;;;;5077963;27;92395;-62
2022/07/15 05:22:48;;;;;;;1.48;0.70;;;;;;;;;;5077946;27;93158;-62
2022/07/15 05:25:15;;;;;;;1.25;0.80;;;;;;;;;;5077309;27;93600;-62
2022/07/15 05:27:41;;;;;;;1.33;0.63;;;;;;;;;;5077382;27;92456;-62
2022/07/15 05:30:08;;;;;;;1.65;0.95;;;;;;;;;;5077479;27;93264;-62
2022/07/15 05:32:34;;;;;;;1.58;0.98;;;;;;;;;;5077574;27;93018;-62
2022/07/15 05:35:00;;;;;;;1.35;0.82;;;;;;;;;;5079807;27;92838;-62
2022/07/15 05:37:27;;;;;;;0.70;0.70;;;;;;;;;;5077836;27;94375;-62
2022/07/15 05:39:53;;;;;;;1.77;0.77;;;;;;;;;;5075592;27;95064;-62
2022/07/15 05:42:22;;;;;;;0.73;0.60;;;;;;;;;;5077358;27;96032;-62
2022/07/15 05:44:49;;;;;;;1.53;0.67;;;;;;;;;;5077032;27;93216;-62
2022/07/15 05:47:15;;;;;;;1.60;0.90;;;;;;;;;;5078136;27;92552;-62
2022/07/15 05:49:42;;;;;;;1.30;0.90;;;;;;;;;;5077052;27;93217;-62
2022/07/15 05:52:09;;;;;;;1.27;0.85;;;;;;;;;;5076874;27;93444;-62
2022/07/15 05:54:36;;;;;;;2.25;0.80;;;;;;;;;;5058985;27;92389;-62
2022/07/15 05:57:03;;;;;;;1.45;0.70;;;;;;;;;;5080727;27;93228;-62
2022/07/15 05:59:30;;;;;;;1.52;0.75;;;;;;;;;;5077226;27;92419;-63
2022/07/15 06:01:56;;;;;;;1.17;0.85;;;;;;;;;;5076859;27;93012;-62
2022/07/15 06:04:26;;;;;;;1.00;0.70;;;;;;;;;;5075209;27;97211;-63
2022/07/15 06:06:53;;;;;;;2.38;0.85;;;;;;;;;;5076410;27;92436;-62
2022/07/15 06:09:20;;;;;;;1.77;0.82;;;;;;;;;;5077112;27;94129;-62
2022/07/15 06:11:46;;;;;;;1.30;0.70;;;;;;;;;;5076826;27;93568;-62
2022/07/15 06:14:13;;;;;;;0.68;0.50;;;;;;;;;;5076601;27;92434;-63
2022/07/15 06:16:39;;;;;;;3.17;1.00;;;;;;;;;;5080073;27;93203;-63
2022/07/15 06:19:08;;;;;;;1.48;0.75;;;;;;;;;;5058779;27;92378;-62
2022/07/15 06:21:35;;;;;;;1.73;0.88;;;;;;;;;;5077109;27;92253;-62
2022/07/15 06:24:01;;;;;;;1.88;0.65;;;;;;;;;;5076470;27;93979;-62
2022/07/15 06:26:28;;;;;;;2.67;0.70;;;;;;;;;;5076746;27;92434;-62
2022/07/15 06:28:54;;;;;;;0.77;0.55;;;;;;;;;;5074857;27;94760;-62
2022/07/15 06:31:21;;;;;;;1.08;0.70;;;;;;;;;;5076415;27;93357;-62
2022/07/15 06:33:47;;;;;;;1.35;0.60;;;;;;;;;;5076047;27;92788;-62
2022/07/15 06:36:13;;;;;;;0.70;0.52;;;;;;;;;;5076496;27;93208;-62
2022/07/15 06:38:40;;;;;;;1.77;0.93;;;;;;;;;;5079596;27;93490;-62
2022/07/15 06:41:06;;;;;;;2.30;0.85;;;;;;;;;;5077145;27;93319;-62
2022/07/15 06:43:32;;;;;;;0.68;0.60;;;;;;;;;;5076125;27;93403;-62
2022/07/15 06:45:59;;;;;;;1.52;0.77;;;;;;;;;;5077197;27;91713;-62
2022/07/15 06:48:25;;;;;;;1.27;0.70;;;;;;;;;;5076394;27;92829;-62
2022/07/15 06:50:51;;;;;;;0.70;0.57;;;;;;;;;;5076225;27;93279;-62
2022/07/15 06:53:18;;;;;;;1.38;0.77;;;;;;;;;;5056457;27;94834;-62
2022/07/15 06:55:44;;;;;;;1.85;0.80;;;;;;;;;;5075957;27;96620;-62
2022/07/15 06:58:10;;;;;;;1.73;0.60;;;;;;;;;;5076469;27;94304;-62
2022/07/15 07:00:37;;;;;;;1.40;0.70;;;;;;;;;;5079684;27;92393;-62
2022/07/15 07:03:03;;;;;;;1.27;0.60;;;;;;;;;;5057750;27;93664;-63
2022/07/15 07:05:29;;;;;;;0.85;0.70;;;;;;;;;;5076321;27;92531;-62
2022/07/15 07:07:57;;;;;;;3.65;0.93;;;;;;;;;;5075756;27;93528;-62
2022/07/15 07:10:25;;;;;;;3.42;0.85;;;;;;;;;;5076342;27;93673;-62
2022/07/15 07:12:52;;;;;;;1.63;0.90;;;;;;;;;;5076046;27;92412;-62
2022/07/15 07:15:20;;;;;;;1.90;0.88;;;;;;;;;;5076364;27;93154;-62
2022/07/15 07:17:47;;;;;;;2.50;0.75;;;;;;;;;;5073146;27;95865;-63
2022/07/15 07:20:13;;;;;;;2.15;0.80;;;;;;;;;;5075614;27;92508;-62
2022/07/15 07:22:39;;;;;;;1.15;0.68;;;;;;;;;;5079087;27;94405;-62
2022/07/15 07:25:07;;;;;;;1.35;0.73;;;;;;;;;;5075760;27;92433;-63
2022/07/15 07:27:33;;;;;;;1.45;0.73;;;;;;;;;;5075828;27;93374;-62
2022/07/15 07:30:01;;;;;;;2.28;0.65;;;;;;;;;;5075358;27;93256;-62
2022/07/15 07:32:27;;;;;;;3.78;0.80;;;;;;;;;;5076266;27;92384;-62
2022/07/15 07:34:54;;;;;;;1.77;0.70;;;;;;;;;;5075696;27;93286;-62
2022/07/15 07:37:22;;;;;;;1.65;0.75;;;;;;;;;;5075277;27;93255;-62
2022/07/15 07:39:48;;;;;;;1.77;0.60;;;;;;;;;;5075269;27;92654;-62
2022/07/15 07:42:15;;;;;;;2.53;0.90;;;;;;;;;;5074011;27;95712;-62
2022/07/15 07:44:45;;;;;;;2.58;0.82;;;;;;;;;;5078393;27;93500;-62
2022/07/15 07:47:11;;;;;;;3.00;0.68;;;;;;;;;;5075755;27;93308;-62
2022/07/15 07:49:40;;;;;;;1.60;0.90;;;;;;;;;;5075167;27;93407;-62
2022/07/15 07:52:06;;;;;;;1.45;0.68;;;;;;;;;;5075381;27;92478;-62
2022/07/15 07:54:33;;;;;;;2.60;0.80;;;;;;;;;;5075160;27;93460;-62
2022/07/15 07:56:59;;;;;;;3.13;0.80;;;;;;;;;;5074939;27;93598;-62
2022/07/15 07:59:25;;;;;;;0.93;0.50;;;;;;;;;;5075872;27;91687;-62
2022/07/15 08:01:52;;;;;;;1.33;0.70;;;;;;;;;;5075258;27;92324;-62
2022/07/15 08:04:18;;;;;;;2.35;0.85;;;;;;;;;;5075075;27;93012;-62
2022/07/15 08:06:45;;;;;;;0.70;0.45;;;;;;;;;;5076436;27;94851;-63
2022/07/15 08:09:11;;;;;;;0.85;0.77;;;;;;;;;;5074808;27;93481;-62
2022/07/15 08:11:38;;;;;;;1.08;0.70;;;;;;;;;;5075064;27;92350;-62
2022/07/15 08:14:05;;;;;;;1.02;0.63;;;;;;;;;;5075366;27;93070;-62
2022/07/15 08:16:32;;;;;;;1.75;0.88;;;;;;;;;;5075132;27;93424;-62
2022/07/15 08:18:59;;;;;;;1.15;0.70;;;;;;;;;;5074766;27;92364;-62
2022/07/15 08:21:25;;;;;;;1.70;0.55;;;;;;;;;;5075021;27;92669;-63
2022/07/15 08:23:52;;;;;;;2.15;0.70;;;;;;;;;;5075253;27;92670;-63
2022/07/15 08:26:23;;;;;;;1.25;0.65;;;;;;;;;;5077880;27;92419;-62
2022/07/15 08:28:50;;;;;;;1.08;0.68;;;;;;;;;;5075961;27;93469;-63
2022/07/15 08:31:33;;;;;;;2.08;0.70;;;;;;;;;;5076992;27;94821;-62
2022/07/15 08:33:59;;;;;;;1.23;0.55;;;;;;;;;;5078613;27;96165;-62
2022/07/15 08:36:26;;;;;;;1.25;0.90;;;;;;;;;;5078779;27;94731;-62
2022/07/15 08:38:52;;;;;;;0.85;0.55;;;;;;;;;;5078447;27;92457;-62
2022/07/15 08:41:18;;;;;;;0.88;0.60;;;;;;;;;;5078873;27;92341;-63
2022/07/15 08:43:45;;;;;;;0.82;0.63;;;;;;;;;;5078222;27;93367;-63
2022/07/15 08:46:12;;;;;;;1.67;0.80;;;;;;;;;;5078832;27;92445;-62
2022/07/15 08:48:40;;;;;;;2.70;0.80;;;;;;;;;;5081725;27;93295;-62
2022/07/15 08:51:10;;;;;;;1.42;0.80;;;;;;;;;;5078244;27;92458;-62
2022/07/15 08:53:36;;;;;;;1.80;0.70;;;;;;;;;;5078185;27;92436;-62
2022/07/15 08:56:03;;;;;;;2.72;0.90;;;;;;;;;;5058403;27;97245;-62
2022/07/15 08:58:29;;;;;;;0.85;0.60;;;;;;;;;;5078186;27;92523;-62
2022/07/15 09:01:16;;;;;;;1.33;0.80;;;;;;;;;;5078417;27;93107;-62
2022/07/15 09:03:42;;;;;;;1.70;0.70;;;;;;;;;;5077480;27;93280;-62
2022/07/15 09:06:17;;;;;;;1.63;0.68;;;;;;;;;;5077962;27;92388;-62
2022/07/15 09:08:44;;;;;;;1.70;0.60;;;;;;;;;;5077822;27;93274;-63
2022/07/15 09:11:10;;;;;;;1.08;0.65;;;;;;;;;;5079265;27;93424;-62
2022/07/15 09:13:41;;;;;;;0.98;0.50;;;;;;;;;;5078360;27;93956;-62
2022/07/15 09:16:09;;;;;;;2.28;0.65;;;;;;;;;;5077590;27;93619;-62
2022/07/15 09:18:36;;;;;;;0.70;0.70;;;;;;;;;;5078279;27;92425;-62
2022/07/15 09:21:14;;;;;;;1.73;0.60;;;;;;;;;;5076499;27;94757;-62
2022/07/15 09:23:40;;;;;;;2.05;0.80;;;;;;;;;;5077255;27;93513;-62
2022/07/15 09:26:22;;;;;;;1.30;0.57;;;;;;;;;;5077683;27;92441;-62
2022/07/15 09:28:50;;;;;;;0.85;0.50;;;;;;;;;;5059759;27;94475;-62
2022/07/15 09:34:19;;;;;;;1.95;0.88;;;;;;;;;;5080438;27;92397;-62
2022/07/15 09:36:50;;;;;;;0.65;0.57;;;;;;;;;;5077792;27;94250;-62
2022/07/15 09:39:18;;;;;;;1.40;0.68;;;;;;;;;;5078527;27;91644;-62
2022/07/15 09:41:45;;;;;;;1.02;0.60;;;;;;;;;;5076485;27;92481;-62
2022/07/15 09:44:11;;;;;;;1.30;0.63;;;;;;;;;;5077312;27;93647;-62
2022/07/15 09:46:43;;;;;;;0.50;0.40;;;;;;;;;;5075212;27;94885;-62
2022/07/15 09:49:14;;;;;;;0.52;0.50;;;;;;;;;;5077027;27;95634;-62
2022/07/15 09:51:48;;;;;;;1.15;0.60;;;;;;;;;;5077178;27;94898;-62
2022/07/15 09:54:14;;;;;;;0.63;0.50;;;;;;;;;;5077329;27;92426;-63
2022/07/15 09:56:41;;;;;;;1.08;0.65;;;;;;;;;;5079303;27;93291;-62
2022/07/15 09:59:08;;;;;;;1.10;0.65;;;;;;;;;;5076893;27;92430;-62
2022/07/15 10:01:36;;;;;;;0.90;0.45;;;;;;;;;;5077299;27;94199;-62
2022/07/15 10:04:04;;;;;;;0.88;0.50;;;;;;;;;;5042422;27;92789;-62
2022/07/15 10:06:31;;;;;;;1.15;0.50;;;;;;;;;;5076881;27;92434;-62
2022/07/15 10:08:58;;;;;;;0.63;0.60;;;;;;;;;;5076744;27;93215;-63
2022/07/15 10:11:24;;;;;;;1.08;0.50;;;;;;;;;;5057514;27;96852;-62
2022/07/15 10:13:51;;;;;;;0.80;0.50;;;;;;;;;;5077389;27;92351;-62
2022/07/15 10:16:27;;;;;;;1.73;0.55;;;;;;;;;;5077429;27;94068;-62
2022/07/15 10:19:18;;;;;;;0.95;0.63;;;;;;;;;;5079752;27;93389;-62
2022/07/15 10:21:48;;;;;;;0.95;0.43;;;;;;;;;;5058460;27;93857;-62
2022/07/15 10:24:33;;;;;;;1.20;0.63;;;;;;;;;;5076318;27;93555;-62
2022/07/15 10:27:02;;;;;;;0.82;0.65;;;;;;;;;;5076632;27;92377;-63
2022/07/15 10:29:31;;;;;;;1.45;0.47;;;;;;;;;;5059270;27;94192;-62
2022/07/15 10:31:59;;;;;;;1.73;0.38;;;;;;;;;;5076299;27;93655;-62
2022/07/15 10:34:28;;;;;;;0.57;0.40;;;;;;;;;;5076038;27;92424;-63
2022/07/15 10:36:57;;;;;;;1.38;0.60;;;;;;;;;;5075076;27;94717;-62
2022/07/15 10:39:26;;;;;;;0.50;0.50;;;;;;;;;;5079531;27;93747;-62
2022/07/15 10:42:02;;;;;;;0.70;0.43;;;;;;;;;;5076397;27;93307;-62
2022/07/15 10:44:33;;;;;;;0.68;0.40;;;;;;;;;;5076206;27;93812;-63
2022/07/15 10:47:11;;;;;;;0.63;0.30;;;;;;;;;;5076228;27;92497;-62
2022/07/15 10:49:38;;;;;;;1.30;0.73;;;;;;;;;;5076238;27;93103;-62
2022/07/15 10:52:14;;;;;;;0.52;0.32;;;;;;;;;;5074788;27;93925;-62
2022/07/15 10:54:43;;;;;;;0.70;0.52;;;;;;;;;;5077532;27;91694;-62
2022/07/15 10:57:09;;;;;;;1.58;0.60;;;;;;;;;;5076019;27;92733;-62
2022/07/15 10:59:37;;;;;;;1.15;0.60;;;;;;;;;;5076048;27;93861;-62
2022/07/15 11:02:04;;;;;;;0.88;0.68;;;;;;;;;;5077641;27;94886;-63
2022/07/15 11:04:31;;;;;;;0.40;0.40;;;;;;;;;;5075604;27;93689;-62
2022/07/15 11:07:07;;;;;;;1.40;0.60;;;;;;;;;;5075956;27;92463;-62
2022/07/15 11:09:52;;;;;;;0.90;0.52;;;;;;;;;;5075981;27;93283;-62
2022/07/15 11:12:22;;;;;;;0.65;0.40;;;;;;;;;;5075544;27;93927;-62
2022/07/15 11:14:58;;;;;;;0.50;0.50;;;;;;;;;;5075807;27;92422;-62
2022/07/15 11:17:33;;;;;;;0.47;0.40;;;;;;;;;;5075737;27;93229;-63
2022/07/15 11:20:08;;;;;;;0.75;0.40;;;;;;;;;;5076072;27;92439;-62
2022/07/15 11:22:36;;;;;;;1.08;0.50;;;;;;;;;;5075585;27;92429;-62
2022/07/15 11:25:03;;;;;;;0.73;0.50;;;;;;;;;;5078654;27;93119;-62
2022/07/15 11:27:30;;;;;;;2.75;0.43;;;;;;;;;;5074333;27;94795;-62
2022/07/15 11:30:03;;;;;;;1.17;0.40;;;;;;;;;;5076099;27;95934;-62
2022/07/15 11:32:31;;;;;;;1.33;0.50;;;;;;;;;;5075325;27;93331;-62
2022/07/15 11:34:58;;;;;;;0.63;0.60;;;;;;;;;;5074860;27;92468;-62
2022/07/15 11:37:27;;;;;;;0.77;0.40;;;;;;;;;;5075481;27;93260;-62
2022/07/15 11:44:28;;;;;;;0.50;0.45;;;;;;;;;;5075415;27;93969;-62
2022/07/15 11:45:43;;;;;;;0.65;0.50;;;;;;;;;;5076411;27;93408;-63
2022/07/15 11:48:09;;;;;;;1.23;0.52;;;;;;;;;;5078135;27;93530;-62
2022/07/15 11:50:37;;;;;;;0.80;0.47;;;;;;;;;;5075528;27;93543;-62
2022/07/15 11:53:13;;;;;;;1.85;0.55;;;;;;;;;;5073821;27;96814;-62
2022/07/15 11:55:49;;;;;;;1.08;0.40;;;;;;;;;;5075408;27;92693;-62
2022/07/15 11:58:24;;;;;;;0.20;0.20;;;;;;;;;;5075813;27;93316;-62
2022/07/15 12:00:50;;;;;;;0.90;0.40;;;;;;;;;;5075031;27;93637;-62
2022/07/15 12:03:17;;;;;;;0.40;0.40;;;;;;;;;;5074822;27;92525;-62
2022/07/15 12:05:58;;;;;;;0.65;0.50;;;;;;;;;;5088684;27;92363;-62
2022/07/15 12:08:35;;;;;;;0.68;0.40;;;;;;;;;;5081329;27;94507;-63
2022/07/15 12:11:01;;;;;;;0.73;0.30;;;;;;;;;;5082398;27;91709;-62
2022/07/15 12:13:39;;;;;;;0.55;0.47;;;;;;;;;;5079201;27;94160;-62
2022/07/15 12:16:06;;;;;;;1.50;0.40;;;;;;;;;;5079303;27;92658;-62
2022/07/15 12:18:38;;;;;;;0.55;0.50;;;;;;;;;;5077456;27;95030;-62
2022/07/15 12:21:05;;;;;;;1.02;0.40;;;;;;;;;;5078413;27;93335;-62
2022/07/15 12:23:31;;;;;;;1.70;0.50;;;;;;;;;;5078659;27;92457;-62
2022/07/15 12:26:07;;;;;;;0.52;0.30;;;;;;;;;;5078571;27;93039;-62
2022/07/15 12:28:34;;;;;;;1.15;0.40;;;;;;;;;;5078159;27;93540;-62
2022/07/15 12:31:01;;;;;;;0.68;0.50;;;;;;;;;;5078739;27;92400;-63
2022/07/15 12:33:32;;;;;;;0.57;0.50;;;;;;;;;;5081739;27;93516;-62
2022/07/15 12:36:12;;;;;;;0.35;0.25;;;;;;;;;;5078592;27;91736;-62
2022/07/15 12:38:38;;;;;;;0.53;0.40;;;;;;;;;;5060192;27;92614;-62
2022/07/15 12:41:07;;;;;;;0.63;0.40;;;;;;;;;;5078157;27;93533;-62
2022/07/15 12:43:47;;;;;;;0.47;0.30;;;;;;;;;;5076522;27;94810;-62
2022/07/15 12:46:14;;;;;;;1.25;0.30;;;;;;;;;;5078495;27;95710;-62
2022/07/15 12:48:46;;;;;;;0.77;0.50;;;;;;;;;;5078461;27;94662;-62
2022/07/15 12:51:14;;;;;;;2.33;0.45;;;;;;;;;;5078506;27;92541;-62
2022/07/15 12:53:41;;;;;;;1.17;0.60;;;;;;;;;;5081271;27;93336;-62
2022/07/15 12:56:07;;;;;;;1.42;0.50;;;;;;;;;;5078072;27;92407;-63
2022/07/15 12:58:37;;;;;;;0.60;0.50;;;;;;;;;;5078067;27;93345;-62
2022/07/15 13:01:22;;;;;;;0.30;0.30;;;;;;;;;;5078303;27;92832;-62
2022/07/15 13:03:51;;;;;;;0.40;0.40;;;;;;;;;;5078266;27;92460;-62
2022/07/15 13:06:19;;;;;;;1.13;0.63;;;;;;;;;;5078458;27;94165;-62
2022/07/15 13:08:45;;;;;;;0.45;0.45;;;;;;;;;;5075765;27;95732;-62
2022/07/15 13:11:12;;;;;;;2.22;0.60;;;;;;;;;;5077779;27;92468;-62
2022/07/15 13:13:39;;;;;;;0.50;0.50;;;;;;;;;;5078164;27;94192;-62
2022/07/15 13:16:06;;;;;;;0.57;0.40;;;;;;;;;;5079997;27;93602;-62
2022/07/15 13:18:33;;;;;;;0.70;0.32;;;;;;;;;;5077792;27;93354;-62
2022/07/15 13:20:59;;;;;;;0.95;0.40;;;;;;;;;;5077415;27;93474;-62
2022/07/15 13:23:26;;;;;;;0.40;0.40;;;;;;;;;;5078048;27;92427;-62
2022/07/15 13:25:54;;;;;;;1.50;0.65;;;;;;;;;;5077981;27;93106;-62
2022/07/15 13:28:21;;;;;;;1.67;0.50;;;;;;;;;;5077148;27;93558;-62
2022/07/15 13:30:49;;;;;;;0.70;0.38;;;;;;;;;;5077676;27;92429;-62
2022/07/15 13:33:16;;;;;;;1.20;0.50;;;;;;;;;;5075811;27;94769;-62
2022/07/15 13:35:42;;;;;;;0.70;0.40;;;;;;;;;;5076755;27;93688;-62
2022/07/15 13:38:09;;;;;;;1.00;0.40;;;;;;;;;;5080538;27;92389;-62
2022/07/15 13:40:35;;;;;;;1.10;0.32;;;;;;;;;;5077819;27;94751;-62
2022/07/15 13:43:02;;;;;;;0.40;0.40;;;;;;;;;;5077412;27;92440;-62
2022/07/15 13:45:29;;;;;;;0.40;0.40;;;;;;;;;;5077699;27;93469;-62
2022/07/15 13:47:55;;;;;;;0.90;0.65;;;;;;;;;;5077080;27;94017;-62
2022/07/15 13:53:07;;;;;;;0.70;0.38;;;;;;;;;;5077910;27;93374;-62
2022/07/15 13:55:33;;;;;;;0.50;0.40;;;;;;;;;;5076946;27;92651;-62
2022/07/15 13:58:00;;;;;;;0.85;0.60;;;;;;;;;;5075463;27;94782;-62
2022/07/15 14:00:26;;;;;;;1.00;0.65;;;;;;;;;;5080666;27;95609;-63
2022/07/15 14:02:53;;;;;;;0.30;0.30;;;;;;;;;;5058982;27;92422;-62
2022/07/15 14:05:20;;;;;;;0.57;0.40;;;;;;;;;;5077445;27;94179;-63
2022/07/15 14:07:46;;;;;;;0.93;0.40;;;;;;;;;;5077280;27;94741;-62
2022/07/15 14:10:13;;;;;;;0.80;0.47;;;;;;;;;;5076827;27;92405;-62
2022/07/15 14:12:40;;;;;;;0.60;0.35;;;;;;;;;;5077040;27;93788;-62
2022/07/15 14:15:07;;;;;;;0.40;0.30;;;;;;;;;;5077521;27;92713;-62
2022/07/15 14:17:34;;;;;;;0.50;0.40;;;;;;;;;;5058442;27;92431;-63
2022/07/15 14:20:01;;;;;;;0.93;0.57;;;;;;;;;;5076887;27;92393;-62
2022/07/15 14:22:29;;;;;;;1.08;0.40;;;;;;;;;;5078665;27;98635;-62
2022/07/15 14:24:55;;;;;;;0.22;0.22;;;;;;;;;;5076656;27;95694;-62
2022/07/15 14:27:22;;;;;;;0.70;0.50;;;;;;;;;;5076341;27;93473;-62
2022/07/15 14:29:48;;;;;;;0.82;0.45;;;;;;;;;;5077208;27;92529;-62
2022/07/15 14:32:14;;;;;;;0.50;0.50;;;;;;;;;;5076425;27;93439;-62
2022/07/15 14:34:41;;;;;;;0.40;0.40;;;;;;;;;;5075828;27;93414;-62
2022/07/15 14:37:07;;;;;;;0.40;0.40;;;;;;;;;;5076309;27;92434;-62
2022/07/15 14:39:53;;;;;;;0.30;0.30;;;;;;;;;;5077219;27;92995;-62
2022/07/15 14:42:20;;;;;;;0.75;0.40;;;;;;;;;;5076371;27;92412;-64
2022/07/15 14:44:46;;;;;;;1.05;0.52;;;;;;;;;;5079799;27;92832;-63
2022/07/15 14:47:12;;;;;;;1.73;0.68;;;;;;;;;;5074762;27;95958;-62
2022/07/15 14:49:39;;;;;;;4.45;0.73;;;;;;;;;;5076797;27;92382;-63
2022/07/15 14:52:05;;;;;;;1.02;0.40;;;;;;;;;;5076012;27;93205;-62
2022/07/15 14:54:32;;;;;;;0.50;0.40;;;;;;;;;;5058023;27;93515;-62
2022/07/15 14:56:58;;;;;;;0.60;0.45;;;;;;;;;;5076005;27;92527;-63